This demonstration page uses our WeatherBlox Daily Observations layout. Learn more.

Left ArrowRight Arrow

39.12711, -84.51439

Hourly Observations for March 2, 2021

Temp ( °F °C ) Dew Point ( °F °C ) Humidity (%) Winds ( mph kmh ) Pressure ( in mb ) Visibility ( mi km ) Precip ( " mm )
12:53 am 00:53 Clear 30 -1.1 19 -7.2 64 64 NNE 6 9 30.4 1030 10 16.0934 0 0
1:53 am 01:53 Clear 29 -1.7 17 -8.3 61 61 N 7 11 30.41 1030 10 16.0934 0 0
2:53 am 02:53 Clear 28 -2.2 16 -8.9 60 60 NNE 7 11 30.4 1030 10 16.0934 0 0
3:53 am 03:53 Clear 26 -3.3 16 -8.9 66 66 NNE 7 11 30.41 1030 10 16.0934 0 0
4:53 am 04:53 Clear 26 -3.3 15 -9.4 63 63 NNE 9 15 30.4 1029 10 16.0934 0 0
5:53 am 05:53 Clear 25 -3.9 15 -9.4 66 66 NNE 7 11 30.4 1030 10 16.0934 0 0
6:53 am 06:53 Clear 24 -4.4 14 -10 65 65 ENE 8 13 30.4 1029 10 16.0934 0 0
7:53 am 07:53 Sunny 25 -3.9 15 -9.4 66 66 ENE 5 7 30.38 1029 10 16.0934 0 0
8:53 am 08:53 Sunny 28 -2.2 16 -8.9 60 60 E 3 6 30.4 1029 10 16.0934 0 0
9:53 am 09:53 Sunny 31 -0.6 16 -8.9 54 54 SSE 7 11 30.4 1030 10 16.0934 0 0
10:53 am 10:53 Sunny 33 0.6 17 -8.3 52 52 WSW 6 9 30.39 1029 10 16.0934 0 0
11:53 am 11:53 Sunny 36 2.2 16 -8.9 44 44 WSW 8 13 30.37 1029 10 16.0934 0 0
12:53 pm 12:53 Sunny 39 3.9 15 -9.4 38 38 S 6 9 30.35 1028 10 16.0934 0 0
1:53 pm 13:53 Sunny 41 5 15 -9.4 35 35 S 5 7 30.31 1026 10 16.0934 0 0
2:53 pm 14:53 Sunny 43 6.1 15 -9.4 32 32 VRB 3 6 30.26 1025 10 16.0934 0 0
3:53 pm 15:53 Sunny 45 7.2 15 -9.4 30 30 VRB 5 7 30.24 1024 10 16.0934 0 0
4:53 pm 16:53 Sunny 45 7.2 13 -10.6 27 27 S 5 7 30.22 1023 10 16.0934 0 0
5:53 pm 17:53 Sunny 45 7.2 13 -10.6 27 27 NW 5 7 30.19 1022 10 16.0934 0 0
6:53 pm 18:53 Clear 41 5 18 -7.8 39 39 Calm 30.18 1022 10 16.0934 0 0
7:53 pm 19:53 Clear 36 2.2 23 -5 59 59 Calm 30.18 1022 10 16.0934 0 0
8:53 pm 20:53 Clear 34 1.1 22 -5.6 61 61 Calm 30.16 1021 10 16.0934 0 0
9:53 pm 21:53 Clear 33 0.6 23 -5 66 66 Calm 30.15 1021 10 16.0934 0 0
10:53 pm 22:53 Clear 31 -0.6 23 -5 72 72 SSW 6 9 30.14 1021 10 16.0934 0 0
11:53 pm 23:53 Clear 30 -1.1 24 -4.4 79 79 SSW 5 7 30.12 1020 10 16.0934 0 0

Powered by AerisWeather